Rachel, Nevada Weather observations

Data are for observation ending at time listed.
 Day   Time    Ave.   Ave.  Ave.  Vector   Max.   Stn.    Total    Solar   Ave.  
  of    of     Air    Rel.  Wind   Wind    Wind   Baro.  Precip.   Rad.    Soil  
Year   Day     Temp.  Hum.  Speed  Dir.    Gust   Pres.                    Temp. 
2026   (PST)    F      %     mph   deg.    mph     mb.     in.     W/m2     F   
------------------------------------------------------------------------------
 127    2:50   42.0    38    0.1   302      1.6   852.1    0.00       0    61.2
 127    3:00   41.6    40    0.2   241      1.6   851.7    0.00       0    61.0
 127    3:10   41.3    41    1.9   194      3.7   851.9    0.00       0    60.8
 127    3:20   41.3    41    2.2   188      3.5   852.0    0.00       0    60.7
 127    3:30   42.1    40    0.3   197      1.5   851.7    0.00       0    60.5
 127    3:40   41.3    40    1.9   208      4.3   851.5    0.00       0    60.4
 127    3:50   41.1    39    2.4   205      4.6   851.4    0.00       0    60.2
 127    4:00   40.3    40    3.4   194      4.8   851.3    0.00       0    60.1
 127    4:10   41.1    41    4.2   193      4.9   851.3    0.00       0    60.0
 127    4:20   42.3    40    3.4   190      4.5   851.6    0.00       0    59.7
 127    4:30   42.3    40    1.4   184      3.8   851.7    0.00       0    59.6
 127    4:40   42.8    41    1.3   287      4.3   851.8    0.00       2    59.6
 127    4:50   44.1    41    1.5   320      3.2   851.7    0.00       5    59.4
 127    5:00   44.0    41    1.0    26      2.6   851.8    0.00      15    59.3
 127    5:10   44.2    42    0.7    44      2.9   851.9    0.00      36    59.0
 127    5:20   44.7    41    1.2    47      2.8   852.0    0.00      63    59.1
 127    5:30   46.2    39    0.5     8      2.4   852.2    0.00      91    58.9
 127    5:40   46.5    40    2.0     0      3.4   852.5    0.00     117    58.8
 127    5:50   46.8    39    0.5   354      1.8   852.8    0.00     143    58.8
 127    6:00   48.3    36    0.1   358      1.2   853.0    0.00     171    58.8
 127    6:10   48.7    37    1.1   308      2.4   853.2    0.00     199    59.0
 127    6:20   48.4    36    1.7   299      3.2   853.0    0.00     227    58.9
 127    6:30   50.6    34    0.7   269      2.6   853.2    0.00     256    58.6
 127    6:40   51.7    33    1.6   234      3.0   853.3    0.00     285    59.1
 127    6:50   53.5    32    0.6   232      2.6   853.5    0.00     313    59.2
 127    7:00   55.0    31    2.0   267      3.6   853.8    0.00     341    59.0
 127    7:10   55.6    31    3.1   261      4.8   853.9    0.00     368    59.3
 127    7:20   57.3    29    3.2   272      5.3   853.6    0.00     395    59.8
 127    7:30   58.5    28    3.4   277      5.4   853.8    0.00     421    59.8
 127    7:40   59.5    28    3.4   280      5.5   853.8    0.00     445    60.2
 127    7:50   60.4    28    3.5   284      5.6   853.9    0.00     469    60.4
 127    8:00   61.8    26    3.4   278      5.6   854.0    0.00     493    60.7
 127    8:10   64.0    25    2.9   267      6.8   854.0    0.00     516    61.0
 127    8:20   65.9    22    2.2   252      4.9   854.1    0.00     536    61.4
 127    8:30   66.8    20    1.4   244      3.7   854.4    0.00     556    62.0
 127    8:40   68.6    19    1.1   261      2.9   854.5    0.00     576    62.3
 127    8:50   70.6    18    0.4   248      1.9   854.2    0.00     595    62.6
 127    9:00   72.1    17    0.6   100      2.0   854.3    0.00     612    62.9
 127    9:10   71.9    17    1.3   277      4.3   854.3    0.00     630    63.6
 127    9:20   72.9    16    0.8   260      3.0   854.4    0.00     647    64.3
 127    9:30   73.1    16    1.4   234      4.1   854.5    0.00     663    64.7
 127    9:40   75.1    14    1.4   269      4.0   854.5    0.00     677    65.6
 127    9:50   74.9    14    2.6   274      5.8   854.6    0.00     691    66.1
 127   10:00   76.1    13    1.7   254      5.5   854.6    0.00     704    66.8
 127   10:10   77.3    13    1.5   198      5.8   854.7    0.00     714    67.0
 127   10:20   76.3    13    3.4   326      8.9   854.7    0.00     725    67.5
 127   10:30   75.8    13    3.2   334      7.7   855.2    0.00     734    68.5
 127   10:40   76.4    13    3.5     8      8.2   855.1    0.00     741    69.1
 127   10:50   77.3    12    4.9    15     12.1   855.1    0.00     746    69.6
 127   11:00   76.5    12    5.7    62     11.5   855.0    0.00     751    70.3
 127   11:10   77.2    12    5.4   354      9.9   854.8    0.00     757    70.8
 127   11:20   77.5    11    7.3    53     14.4   854.6    0.00     762    71.4
 127   11:30   76.9    12    7.5    42     11.8   854.6    0.00     763    72.1
 127   11:40   77.9    12    4.5    20      9.1   854.3    0.00     762    72.8
 127   11:50   78.0    12    6.5    36     11.1   854.2    0.00     762    73.2
 127   12:00   78.5    12    9.8    35     16.3   854.1    0.00     761    73.8
 127   12:10   79.1    11    9.6    48     20.1   853.8    0.00     757    74.3
 127   12:20   80.7    11    3.6   304     12.6   853.7    0.00     751    74.6
 127   12:30   80.1    11    5.8   254     13.4   854.1    0.00     735    74.7
 127   12:40   79.8    11    5.0   259      9.1   854.0    0.00     711    74.9
 127   12:50   80.4    11    2.8   310     10.2   853.5    0.00     713    74.7
 127   13:00   80.3    10    3.3    48     10.3   853.0    0.00     722    74.4
 127   13:10   81.3    10    4.5    34     11.1   853.4    0.00     711    74.5
 127   13:20   81.9    10    4.7   167     10.6   852.9    0.00     696    74.4
 127   13:30   81.3    11    7.0   281     18.5   853.2    0.00     681    74.1
 127   13:40   82.6    10   12.9   276     21.5   853.3    0.00     669    74.3
 127   13:50   82.1    11    5.6   291     14.7   853.3    0.00     657    74.0
 127   14:00   81.8    10    5.6   193     13.5   853.0    0.00     641    74.0
 127   14:10   82.9    10    8.2   232     16.6   852.9    0.00     629    73.4
 127   14:20   83.8     9    8.6   265     20.0   852.7    0.00     608    73.7
 127   14:30   83.5     9   11.3   306     20.9   852.7    0.00     587    73.5
 127   14:40   83.9     9   10.6   290     18.3   852.4    0.00     566    73.2
 127   14:50   84.2     9   13.1   300     25.9   851.8    0.00     545    73.4
 127   15:00   83.2     9    7.4   290     16.3   851.7    0.00     524    73.1
 127   15:10   84.0     9   11.3   278     19.8   851.6    0.00     503    73.1
 127   15:20   84.3     8   10.4   245     19.6   851.5    0.00     481    73.2
 127   15:30   84.3     8   15.8   282     27.0   851.4    0.00     469    73.1
 127   15:40   84.3     8   15.0   284     24.0   851.4    0.00     454    73.2
 127   15:50   84.3     8   16.2   318     26.6   851.4    0.00     419    73.0
 127   16:00   83.6     8   14.3   302     22.2   851.5    0.00     409    73.1
 127   16:10   84.1     8   13.7   286     21.9   851.5    0.00     381    73.2
 127   16:20   84.2     8   10.2   279     19.7   851.4    0.00     360    73.0
 127   16:30   83.9     8   16.2   302     23.6   851.3    0.00     337    72.8
 127   16:40   83.2     8   11.8   299     17.9   851.4    0.00     308    73.0
 127   16:50   83.4     8   12.7   294     19.7   851.3    0.00     269    72.9
 127   17:00   83.1     8   14.7   306     21.9   851.3    0.00     231    72.9
 127   17:10   82.8     8   15.3   306     20.0   851.3    0.00     200    72.9
 127   17:20   82.1     8   13.8   306     20.6   851.2    0.00     173    72.9
 127   17:30   82.1     9    8.9   288     15.0   851.1    0.00     147    72.6
 127   17:40   81.9     9   10.0   297     14.8   851.0    0.00     119    72.4
 127   17:50   80.8    10    9.9   284     15.1   851.0    0.00      84    72.7
 127   18:00   80.4    10    8.8   279     13.1   850.9    0.00      64    72.5
 127   18:10   80.3    10    7.7   279     12.1   850.9    0.00      50    72.8
 127   18:20   79.2    11    8.3   289     15.6   850.9    0.00      31    72.3
 127   18:30   77.8    12    7.8   283     11.0   850.9    0.00      14    72.4
 127   18:40   75.7    12    6.9   273     10.4   850.8    0.00       7    72.4
 127   18:50   73.4    13    7.3   265      9.3   850.6    0.00       3    71.9
 127   19:00   73.3    12    7.5   246      9.7   850.3    0.00       2    72.0
 127   19:10   72.1    12    7.0   226      9.5   850.1    0.00       0    71.7
 127   19:20   71.3    12    7.5   228     10.1   850.0    0.00       0    72.4
 127   19:30   70.9    13    7.9   236     11.3   850.0    0.00       0    72.2
 127   19:40   71.0    13    8.5   244     12.5   850.1    0.00       0    71.3
 127   19:50   71.7    12    8.2   250     12.1   850.1    0.00       0    71.2
 127   20:00   70.5    13    7.2   249     11.3   850.2    0.00       0    71.4
 127   20:10   69.9    13    7.1   242     10.9   850.3    0.00       0    70.9
 127   20:20   69.0    13    7.1   242     10.2   850.3    0.00       0    70.6
 127   20:30   68.6    14    7.5   237     10.3   850.3    0.00       0    70.7
 127   20:40   68.0    16    7.5   237     10.4   850.2    0.00       0    70.6
 127   20:50   68.5    14    8.0   239     12.3   850.1    0.00       0    70.2
 127   21:00   69.2    14    7.7   252     11.9   850.1    0.00       0    70.4
 127   21:10   68.5    14    2.8   294      7.4   850.3    0.00       0    70.1
 127   21:20   67.6    15    1.9   181      4.3   850.3    0.00       0    69.9
 127   21:30   68.1    15    3.8   113      7.6   850.3    0.00       0    69.4
 127   21:40   67.2    16    3.3   144      8.2   850.3    0.00       0    69.6
 127   21:50   66.8    16    4.6   123      7.6   850.3    0.00       0    69.3
 127   22:00   64.5    17    4.4   114      6.4   850.4    0.00       0    69.3
 127   22:10   65.9    16    2.1   147      4.7   850.3    0.00       0    69.0
 127   22:20   67.4    16    1.4    78      7.0   850.3    0.00       0    68.8
 127   22:30   66.2    17    4.3   103      6.0   850.3    0.00       0    68.9
 127   22:40   65.5    17    4.1   165      5.9   850.4    0.00       0    68.5
 127   22:50   62.2    19    5.9   224     10.0   850.5    0.00       0    68.4
 127   23:00   61.4    22    5.9   225      8.1   850.5    0.00       0    68.1
 127   23:10   61.1    20    6.7   213      7.9   850.5    0.00       0    68.1
 127   23:20   59.3    22    6.2   199      7.0   850.4    0.00       0    67.7
 127   23:30   61.4    20    4.9   201      6.7   850.4    0.00       0    67.9
 127   23:40   59.2    22    4.3   182      5.3   850.4    0.00       0    67.6
 127   23:50   56.6    24    5.1   171      6.7   850.4    0.00       0    67.4
 128    0:00   55.2    25    1.2   168      2.9   850.3    0.00       0    67.3
 128    0:10   55.4    25    1.5   120      3.1   850.4    0.00       0    67.1
 128    0:20   55.6    25    1.6   157      2.2   850.6    0.00       0    66.9
 128    0:30   54.6    25    1.0   105      2.4   850.4    0.00       0    66.9
 128    0:40   54.3    25    1.5   183      2.9   850.2    0.00       0    66.7
 128    0:50   53.2    26    2.2   168      3.7   849.9    0.00       0    66.3
 128    1:00   53.1    27    2.2   191      4.1   850.3    0.00       0    66.5
 128    1:10   53.0    27    3.8   217      5.4   850.1    0.00       0    66.1
 128    1:20   52.4    27    4.2   197      5.8   850.1    0.00       0    65.8
 128    1:30   55.9    26    3.4   195      5.8   850.1    0.00       0    65.8
 128    1:40   56.7    25    3.2   195      3.9   850.1    0.00       0    65.7
 128    1:50   56.9    25    3.7   171      5.0   850.1    0.00       0    65.4
 128    2:00   55.9    25    2.0   170      4.2   850.2    0.00       0    65.3
 128    2:10   53.9    27    0.5   207      3.1   850.2    0.00       0    65.2
 128    2:20   55.7    26    0.4     8      3.7   850.2    0.00       0    65.0
 128    2:30   54.8    26    2.1     3      3.5   850.2    0.00       0    64.9
 128    2:40   54.2    28    2.3   310      3.0   850.0    0.00       0    64.7

Return to St. George, Utah graphs page.


Western Regional Climate Center,wrcc@dri.edu